sensor_id;sensor_type;location;lat;lon;timestamp;P1;durP1;ratioP1;P2;durP2;ratioP2
52868;SDS011;39100;53.480;6.158;2023-05-29T00:02:07;1.92;;;0.60;;
52868;SDS011;39100;53.480;6.158;2023-05-29T00:04:33;1.65;;;0.30;;
52868;SDS011;39100;53.480;6.158;2023-05-29T00:06:58;2.20;;;0.65;;
52868;SDS011;39100;53.480;6.158;2023-05-29T00:09:24;0.98;;;0.30;;
52868;SDS011;39100;53.480;6.158;2023-05-29T00:11:50;1.55;;;0.30;;
52868;SDS011;39100;53.480;6.158;2023-05-29T00:14:20;2.28;;;0.60;;
52868;SDS011;39100;53.480;6.158;2023-05-29T00:16:47;1.98;;;0.40;;
52868;SDS011;39100;53.480;6.158;2023-05-29T00:19:14;1.63;;;0.30;;
52868;SDS011;39100;53.480;6.158;2023-05-29T00:21:42;2.95;;;0.35;;
52868;SDS011;39100;53.480;6.158;2023-05-29T00:24:08;1.17;;;0.30;;
52868;SDS011;39100;53.480;6.158;2023-05-29T00:26:33;2.22;;;0.70;;
52868;SDS011;39100;53.480;6.158;2023-05-29T00:28:59;1.40;;;0.32;;
52868;SDS011;39100;53.480;6.158;2023-05-29T00:31:25;0.93;;;0.35;;
52868;SDS011;39100;53.480;6.158;2023-05-29T00:33:51;1.75;;;0.80;;
52868;SDS011;39100;53.480;6.158;2023-05-29T00:36:16;2.22;;;0.47;;
52868;SDS011;39100;53.480;6.158;2023-05-29T00:38:43;0.70;;;0.30;;
52868;SDS011;39100;53.480;6.158;2023-05-29T00:41:13;1.77;;;0.43;;
52868;SDS011;39100;53.480;6.158;2023-05-29T00:43:40;1.73;;;0.25;;
52868;SDS011;39100;53.480;6.158;2023-05-29T00:46:06;5.68;;;0.55;;
52868;SDS011;39100;53.480;6.158;2023-05-29T00:48:33;1.75;;;0.47;;
52868;SDS011;39100;53.480;6.158;2023-05-29T00:50:58;2.83;;;0.30;;
52868;SDS011;39100;53.480;6.158;2023-05-29T00:53:24;3.17;;;0.40;;
52868;SDS011;39100;53.480;6.158;2023-05-29T00:55:50;0.52;;;0.20;;
52868;SDS011;39100;53.480;6.158;2023-05-29T00:58:17;1.30;;;0.30;;
52868;SDS011;39100;53.480;6.158;2023-05-29T01:00:43;1.67;;;0.20;;
52868;SDS011;39100;53.480;6.158;2023-05-29T01:03:09;3.78;;;0.30;;
52868;SDS011;39100;53.480;6.158;2023-05-29T01:05:39;2.58;;;0.60;;
52868;SDS011;39100;53.480;6.158;2023-05-29T01:08:06;0.82;;;0.17;;
52868;SDS011;39100;53.480;6.158;2023-05-29T01:10:32;0.50;;;0.25;;
52868;SDS011;39100;53.480;6.158;2023-05-29T01:13:10;2.22;;;0.43;;
52868;SDS011;39100;53.480;6.158;2023-05-29T01:15:46;1.80;;;0.20;;
52868;SDS011;39100;53.480;6.158;2023-05-29T01:18:39;2.55;;;0.30;;
52868;SDS011;39100;53.480;6.158;2023-05-29T01:27:09;1.35;;;0.28;;
52868;SDS011;39100;53.480;6.158;2023-05-29T01:29:36;1.35;;;0.60;;
52868;SDS011;39100;53.480;6.158;2023-05-29T01:32:05;1.05;;;0.30;;
52868;SDS011;39100;53.480;6.158;2023-05-29T01:34:31;2.22;;;0.40;;
52868;SDS011;39100;53.480;6.158;2023-05-29T01:36:57;2.45;;;0.30;;
52868;SDS011;39100;53.480;6.158;2023-05-29T01:39:23;0.65;;;0.32;;
52868;SDS011;39100;53.480;6.158;2023-05-29T01:41:49;3.47;;;0.77;;
52868;SDS011;39100;53.480;6.158;2023-05-29T01:44:16;3.35;;;0.38;;
52868;SDS011;39100;53.480;6.158;2023-05-29T01:46:42;1.58;;;0.40;;
52868;SDS011;39100;53.480;6.158;2023-05-29T01:49:11;2.28;;;0.32;;
52868;SDS011;39100;53.480;6.158;2023-05-29T01:51:38;1.23;;;0.10;;
52868;SDS011;39100;53.480;6.158;2023-05-29T01:54:05;3.78;;;0.47;;
52868;SDS011;39100;53.480;6.158;2023-05-29T01:56:31;1.98;;;0.30;;
52868;SDS011;39100;53.480;6.158;2023-05-29T01:58:58;0.63;;;0.40;;
52868;SDS011;39100;53.480;6.158;2023-05-29T02:01:25;2.20;;;0.40;;
52868;SDS011;39100;53.480;6.158;2023-05-29T02:03:51;1.00;;;0.73;;
52868;SDS011;39100;53.480;6.158;2023-05-29T02:06:17;1.55;;;0.70;;
52868;SDS011;39100;53.480;6.158;2023-05-29T02:08:43;3.15;;;0.30;;
52868;SDS011;39100;53.480;6.158;2023-05-29T02:11:08;2.20;;;0.30;;
52868;SDS011;39100;53.480;6.158;2023-05-29T02:13:34;2.10;;;0.35;;
52868;SDS011;39100;53.480;6.158;2023-05-29T02:16:00;2.53;;;0.55;;
52868;SDS011;39100;53.480;6.158;2023-05-29T02:18:26;3.70;;;0.40;;
52868;SDS011;39100;53.480;6.158;2023-05-29T02:20:51;3.25;;;0.30;;
52868;SDS011;39100;53.480;6.158;2023-05-29T02:23:17;1.85;;;0.50;;
52868;SDS011;39100;53.480;6.158;2023-05-29T02:25:44;2.25;;;0.52;;
52868;SDS011;39100;53.480;6.158;2023-05-29T02:28:10;1.73;;;0.38;;
52868;SDS011;39100;53.480;6.158;2023-05-29T02:30:36;1.73;;;0.30;;
52868;SDS011;39100;53.480;6.158;2023-05-29T02:33:01;2.05;;;0.30;;
52868;SDS011;39100;53.480;6.158;2023-05-29T02:35:27;3.00;;;0.68;;
52868;SDS011;39100;53.480;6.158;2023-05-29T02:37:53;2.25;;;0.30;;
52868;SDS011;39100;53.480;6.158;2023-05-29T02:40:19;0.57;;;0.40;;
52868;SDS011;39100;53.480;6.158;2023-05-29T02:42:45;1.35;;;0.20;;
52868;SDS011;39100;53.480;6.158;2023-05-29T02:45:10;3.35;;;0.30;;
52868;SDS011;39100;53.480;6.158;2023-05-29T02:47:36;1.13;;;0.22;;
52868;SDS011;39100;53.480;6.158;2023-05-29T02:50:02;1.50;;;0.50;;
52868;SDS011;39100;53.480;6.158;2023-05-29T02:52:29;1.88;;;0.40;;
52868;SDS011;39100;53.480;6.158;2023-05-29T02:54:55;2.05;;;0.30;;
52868;SDS011;39100;53.480;6.158;2023-05-29T02:57:21;2.70;;;0.38;;
52868;SDS011;39100;53.480;6.158;2023-05-29T02:59:47;3.10;;;0.52;;
52868;SDS011;39100;53.480;6.158;2023-05-29T03:02:13;1.70;;;0.45;;
52868;SDS011;39100;53.480;6.158;2023-05-29T03:04:39;4.30;;;0.30;;
52868;SDS011;39100;53.480;6.158;2023-05-29T03:07:05;2.80;;;1.05;;
52868;SDS011;39100;53.480;6.158;2023-05-29T03:09:31;0.88;;;0.10;;
52868;SDS011;39100;53.480;6.158;2023-05-29T03:11:57;1.42;;;0.45;;
52868;SDS011;39100;53.480;6.158;2023-05-29T03:14:23;1.27;;;0.35;;
52868;SDS011;39100;53.480;6.158;2023-05-29T03:16:48;1.85;;;0.30;;
52868;SDS011;39100;53.480;6.158;2023-05-29T03:19:15;3.30;;;1.00;;
52868;SDS011;39100;53.480;6.158;2023-05-29T03:21:41;3.53;;;0.30;;
52868;SDS011;39100;53.480;6.158;2023-05-29T03:24:06;1.50;;;0.43;;
52868;SDS011;39100;53.480;6.158;2023-05-29T03:26:32;2.45;;;1.00;;
52868;SDS011;39100;53.480;6.158;2023-05-29T03:28:57;1.42;;;0.20;;
52868;SDS011;39100;53.480;6.158;2023-05-29T03:31:23;1.23;;;0.75;;
52868;SDS011;39100;53.480;6.158;2023-05-29T03:33:49;2.67;;;0.30;;
52868;SDS011;39100;53.480;6.158;2023-05-29T03:36:14;1.75;;;0.22;;
52868;SDS011;39100;53.480;6.158;2023-05-29T03:38:42;2.33;;;0.30;;
52868;SDS011;39100;53.480;6.158;2023-05-29T03:41:08;2.88;;;0.40;;
52868;SDS011;39100;53.480;6.158;2023-05-29T03:43:34;1.30;;;0.50;;
52868;SDS011;39100;53.480;6.158;2023-05-29T03:45:59;0.93;;;0.35;;
52868;SDS011;39100;53.480;6.158;2023-05-29T03:48:25;1.90;;;0.55;;
52868;SDS011;39100;53.480;6.158;2023-05-29T03:50:50;2.58;;;0.60;;
52868;SDS011;39100;53.480;6.158;2023-05-29T03:53:16;1.83;;;0.50;;
52868;SDS011;39100;53.480;6.158;2023-05-29T03:55:41;1.30;;;0.30;;
52868;SDS011;39100;53.480;6.158;2023-05-29T03:58:07;2.35;;;0.38;;
52868;SDS011;39100;53.480;6.158;2023-05-29T04:00:33;3.85;;;0.30;;
52868;SDS011;39100;53.480;6.158;2023-05-29T04:02:58;1.45;;;0.95;;
52868;SDS011;39100;53.480;6.158;2023-05-29T04:05:24;0.50;;;0.30;;
52868;SDS011;39100;53.480;6.158;2023-05-29T04:07:51;4.00;;;0.40;;
52868;SDS011;39100;53.480;6.158;2023-05-29T04:10:17;1.08;;;0.40;;
52868;SDS011;39100;53.480;6.158;2023-05-29T04:12:42;0.40;;;0.10;;
52868;SDS011;39100;53.480;6.158;2023-05-29T04:15:08;2.30;;;0.30;;
52868;SDS011;39100;53.480;6.158;2023-05-29T04:17:34;1.70;;;0.32;;
52868;SDS011;39100;53.480;6.158;2023-05-29T04:19:59;1.65;;;0.25;;
52868;SDS011;39100;53.480;6.158;2023-05-29T04:22:31;1.23;;;0.22;;
52868;SDS011;39100;53.480;6.158;2023-05-29T04:24:56;0.68;;;0.32;;
52868;SDS011;39100;53.480;6.158;2023-05-29T04:27:22;0.75;;;0.30;;
52868;SDS011;39100;53.480;6.158;2023-05-29T04:29:47;2.58;;;0.30;;
52868;SDS011;39100;53.480;6.158;2023-05-29T04:32:13;1.55;;;0.40;;
52868;SDS011;39100;53.480;6.158;2023-05-29T04:34:38;2.30;;;0.50;;
52868;SDS011;39100;53.480;6.158;2023-05-29T04:37:05;2.63;;;0.40;;
52868;SDS011;39100;53.480;6.158;2023-05-29T04:39:31;0.85;;;0.25;;
52868;SDS011;39100;53.480;6.158;2023-05-29T04:41:57;2.55;;;0.47;;
52868;SDS011;39100;53.480;6.158;2023-05-29T04:44:25;2.63;;;0.63;;
52868;SDS011;39100;53.480;6.158;2023-05-29T04:46:51;1.02;;;0.50;;
52868;SDS011;39100;53.480;6.158;2023-05-29T04:49:17;0.82;;;0.30;;
52868;SDS011;39100;53.480;6.158;2023-05-29T04:51:44;2.58;;;0.30;;
52868;SDS011;39100;53.480;6.158;2023-05-29T04:54:10;2.67;;;0.32;;
52868;SDS011;39100;53.480;6.158;2023-05-29T04:56:36;1.85;;;0.45;;
52868;SDS011;39100;53.480;6.158;2023-05-29T04:59:02;3.20;;;0.50;;
52868;SDS011;39100;53.480;6.158;2023-05-29T05:01:28;2.40;;;0.55;;
52868;SDS011;39100;53.480;6.158;2023-05-29T05:03:54;0.80;;;0.15;;
52868;SDS011;39100;53.480;6.158;2023-05-29T05:06:22;2.00;;;0.50;;
52868;SDS011;39100;53.480;6.158;2023-05-29T05:08:50;1.48;;;0.20;;
52868;SDS011;39100;53.480;6.158;2023-05-29T05:11:16;3.13;;;0.20;;
52868;SDS011;39100;53.480;6.158;2023-05-29T05:13:43;2.38;;;0.50;;
52868;SDS011;39100;53.480;6.158;2023-05-29T05:16:08;1.27;;;0.10;;
52868;SDS011;39100;53.480;6.158;2023-05-29T05:18:34;1.83;;;0.25;;
52868;SDS011;39100;53.480;6.158;2023-05-29T05:21:00;2.00;;;0.55;;
52868;SDS011;39100;53.480;6.158;2023-05-29T05:23:28;1.85;;;0.40;;
52868;SDS011;39100;53.480;6.158;2023-05-29T05:25:53;3.65;;;0.52;;
52868;SDS011;39100;53.480;6.158;2023-05-29T05:28:19;2.20;;;0.30;;
52868;SDS011;39100;53.480;6.158;2023-05-29T05:30:45;0.68;;;0.60;;
52868;SDS011;39100;53.480;6.158;2023-05-29T05:33:10;1.17;;;0.50;;
52868;SDS011;39100;53.480;6.158;2023-05-29T05:35:36;2.67;;;0.40;;
52868;SDS011;39100;53.480;6.158;2023-05-29T05:38:02;3.88;;;0.45;;
52868;SDS011;39100;53.480;6.158;2023-05-29T05:40:27;2.03;;;0.77;;
52868;SDS011;39100;53.480;6.158;2023-05-29T05:42:53;3.00;;;0.50;;
52868;SDS011;39100;53.480;6.158;2023-05-29T05:45:19;2.35;;;0.30;;
52868;SDS011;39100;53.480;6.158;2023-05-29T05:47:45;2.20;;;0.43;;
52868;SDS011;39100;53.480;6.158;2023-05-29T05:50:11;3.05;;;0.45;;
52868;SDS011;39100;53.480;6.158;2023-05-29T05:52:37;1.55;;;0.40;;
52868;SDS011;39100;53.480;6.158;2023-05-29T05:55:03;0.80;;;0.35;;
52868;SDS011;39100;53.480;6.158;2023-05-29T05:57:29;0.85;;;0.32;;
52868;SDS011;39100;53.480;6.158;2023-05-29T05:59:57;1.80;;;0.32;;
52868;SDS011;39100;53.480;6.158;2023-05-29T06:02:23;1.63;;;0.35;;
52868;SDS011;39100;53.480;6.158;2023-05-29T06:04:48;3.80;;;0.50;;
52868;SDS011;39100;53.480;6.158;2023-05-29T06:07:15;0.90;;;0.30;;
52868;SDS011;39100;53.480;6.158;2023-05-29T06:09:40;1.83;;;0.52;;
52868;SDS011;39100;53.480;6.158;2023-05-29T06:12:07;1.50;;;0.32;;
52868;SDS011;39100;53.480;6.158;2023-05-29T06:14:33;2.33;;;0.45;;
52868;SDS011;39100;53.480;6.158;2023-05-29T06:16:59;1.95;;;0.55;;
52868;SDS011;39100;53.480;6.158;2023-05-29T06:19:25;1.70;;;0.47;;
52868;SDS011;39100;53.480;6.158;2023-05-29T06:21:51;1.60;;;0.45;;
52868;SDS011;39100;53.480;6.158;2023-05-29T06:24:16;1.33;;;0.30;;
52868;SDS011;39100;53.480;6.158;2023-05-29T06:26:42;3.40;;;0.60;;
52868;SDS011;39100;53.480;6.158;2023-05-29T06:29:07;1.23;;;0.65;;
52868;SDS011;39100;53.480;6.158;2023-05-29T06:31:33;1.48;;;0.43;;
52868;SDS011;39100;53.480;6.158;2023-05-29T06:33:59;2.03;;;1.00;;
52868;SDS011;39100;53.480;6.158;2023-05-29T06:36:24;1.40;;;0.50;;
52868;SDS011;39100;53.480;6.158;2023-05-29T06:38:50;1.55;;;0.52;;
52868;SDS011;39100;53.480;6.158;2023-05-29T06:41:16;2.38;;;0.40;;
52868;SDS011;39100;53.480;6.158;2023-05-29T06:43:42;1.83;;;0.50;;
52868;SDS011;39100;53.480;6.158;2023-05-29T06:46:08;1.45;;;0.30;;
52868;SDS011;39100;53.480;6.158;2023-05-29T06:48:35;5.68;;;0.98;;
52868;SDS011;39100;53.480;6.158;2023-05-29T06:51:01;3.20;;;0.55;;
52868;SDS011;39100;53.480;6.158;2023-05-29T06:53:40;2.08;;;0.22;;
52868;SDS011;39100;53.480;6.158;2023-05-29T06:56:06;1.77;;;0.35;;
52868;SDS011;39100;53.480;6.158;2023-05-29T06:58:32;5.47;;;1.00;;
52868;SDS011;39100;53.480;6.158;2023-05-29T07:00:58;1.85;;;0.32;;
52868;SDS011;39100;53.480;6.158;2023-05-29T07:03:25;1.75;;;0.32;;
52868;SDS011;39100;53.480;6.158;2023-05-29T07:05:51;1.70;;;0.30;;
52868;SDS011;39100;53.480;6.158;2023-05-29T07:08:17;1.75;;;0.75;;
52868;SDS011;39100;53.480;6.158;2023-05-29T07:10:43;3.45;;;0.40;;
52868;SDS011;39100;53.480;6.158;2023-05-29T07:13:09;2.15;;;0.38;;
52868;SDS011;39100;53.480;6.158;2023-05-29T07:15:34;1.20;;;0.40;;
52868;SDS011;39100;53.480;6.158;2023-05-29T07:18:00;3.55;;;0.52;;
52868;SDS011;39100;53.480;6.158;2023-05-29T07:20:25;1.65;;;0.55;;
52868;SDS011;39100;53.480;6.158;2023-05-29T07:22:51;2.03;;;0.55;;
52868;SDS011;39100;53.480;6.158;2023-05-29T07:25:17;6.82;;;0.80;;
52868;SDS011;39100;53.480;6.158;2023-05-29T07:27:42;2.38;;;0.60;;
52868;SDS011;39100;53.480;6.158;2023-05-29T07:30:08;3.17;;;0.45;;
52868;SDS011;39100;53.480;6.158;2023-05-29T07:32:34;3.55;;;0.60;;
52868;SDS011;39100;53.480;6.158;2023-05-29T07:35:00;3.40;;;0.50;;
52868;SDS011;39100;53.480;6.158;2023-05-29T07:37:25;2.20;;;0.80;;
52868;SDS011;39100;53.480;6.158;2023-05-29T07:39:51;2.38;;;0.52;;
52868;SDS011;39100;53.480;6.158;2023-05-29T07:42:16;1.98;;;0.47;;
52868;SDS011;39100;53.480;6.158;2023-05-29T07:44:42;3.03;;;0.70;;
52868;SDS011;39100;53.480;6.158;2023-05-29T07:47:08;2.88;;;0.55;;
52868;SDS011;39100;53.480;6.158;2023-05-29T07:49:34;1.45;;;1.05;;
52868;SDS011;39100;53.480;6.158;2023-05-29T07:52:01;4.38;;;0.65;;
52868;SDS011;39100;53.480;6.158;2023-05-29T07:54:27;4.03;;;0.55;;
52868;SDS011;39100;53.480;6.158;2023-05-29T07:56:52;3.55;;;0.73;;
52868;SDS011;39100;53.480;6.158;2023-05-29T07:59:18;2.55;;;0.88;;
52868;SDS011;39100;53.480;6.158;2023-05-29T08:01:44;1.40;;;0.73;;
52868;SDS011;39100;53.480;6.158;2023-05-29T08:04:09;2.03;;;0.43;;
52868;SDS011;39100;53.480;6.158;2023-05-29T08:06:36;4.32;;;0.80;;
52868;SDS011;39100;53.480;6.158;2023-05-29T08:09:02;3.47;;;0.88;;
52868;SDS011;39100;53.480;6.158;2023-05-29T08:11:28;2.13;;;0.77;;
52868;SDS011;39100;53.480;6.158;2023-05-29T08:13:54;2.10;;;0.50;;
52868;SDS011;39100;53.480;6.158;2023-05-29T08:16:19;1.65;;;0.65;;
52868;SDS011;39100;53.480;6.158;2023-05-29T08:18:47;3.35;;;0.80;;
52868;SDS011;39100;53.480;6.158;2023-05-29T08:21:12;1.88;;;0.52;;
52868;SDS011;39100;53.480;6.158;2023-05-29T08:23:38;5.40;;;0.77;;
52868;SDS011;39100;53.480;6.158;2023-05-29T08:26:05;4.13;;;0.77;;
52868;SDS011;39100;53.480;6.158;2023-05-29T08:28:30;1.30;;;0.40;;
52868;SDS011;39100;53.480;6.158;2023-05-29T08:30:56;3.83;;;1.13;;
52868;SDS011;39100;53.480;6.158;2023-05-29T08:33:22;4.68;;;0.95;;
52868;SDS011;39100;53.480;6.158;2023-05-29T08:35:47;2.15;;;0.57;;
52868;SDS011;39100;53.480;6.158;2023-05-29T08:38:13;4.25;;;1.02;;
52868;SDS011;39100;53.480;6.158;2023-05-29T08:40:39;2.90;;;1.42;;
52868;SDS011;39100;53.480;6.158;2023-05-29T08:43:10;4.57;;;1.13;;
52868;SDS011;39100;53.480;6.158;2023-05-29T08:45:42;8.10;;;1.38;;
52868;SDS011;39100;53.480;6.158;2023-05-29T08:48:09;6.57;;;1.83;;
52868;SDS011;39100;53.480;6.158;2023-05-29T08:50:37;5.60;;;0.80;;
52868;SDS011;39100;53.480;6.158;2023-05-29T08:55:35;9.13;;;2.72;;
52868;SDS011;39100;53.480;6.158;2023-05-29T08:58:01;7.68;;;1.35;;
52868;SDS011;39100;53.480;6.158;2023-05-29T09:00:27;9.00;;;1.80;;
52868;SDS011;39100;53.480;6.158;2023-05-29T09:02:54;6.45;;;1.73;;
52868;SDS011;39100;53.480;6.158;2023-05-29T09:05:24;7.85;;;1.20;;
52868;SDS011;39100;53.480;6.158;2023-05-29T09:07:52;4.90;;;1.10;;
52868;SDS011;39100;53.480;6.158;2023-05-29T09:10:18;5.88;;;1.63;;
52868;SDS011;39100;53.480;6.158;2023-05-29T09:12:45;6.50;;;1.10;;
52868;SDS011;39100;53.480;6.158;2023-05-29T09:15:18;7.20;;;2.13;;
52868;SDS011;39100;53.480;6.158;2023-05-29T09:17:51;4.00;;;1.10;;
52868;SDS011;39100;53.480;6.158;2023-05-29T09:20:22;5.82;;;1.50;;
52868;SDS011;39100;53.480;6.158;2023-05-29T09:22:52;6.88;;;1.30;;
52868;SDS011;39100;53.480;6.158;2023-05-29T09:25:19;8.60;;;1.23;;
52868;SDS011;39100;53.480;6.158;2023-05-29T09:27:47;9.40;;;1.73;;
52868;SDS011;39100;53.480;6.158;2023-05-29T09:31:01;6.28;;;1.33;;
52868;SDS011;39100;53.480;6.158;2023-05-29T09:33:05;7.13;;;1.40;;
52868;SDS011;39100;53.480;6.158;2023-05-29T09:35:36;6.30;;;1.17;;
52868;SDS011;39100;53.480;6.158;2023-05-29T09:38:05;4.40;;;1.38;;
52868;SDS011;39100;53.480;6.158;2023-05-29T09:40:40;5.15;;;1.30;;
52868;SDS011;39100;53.480;6.158;2023-05-29T09:43:16;5.32;;;1.48;;
52868;SDS011;39100;53.480;6.158;2023-05-29T09:45:44;9.95;;;1.73;;
52868;SDS011;39100;53.480;6.158;2023-05-29T09:48:18;8.50;;;1.52;;
52868;SDS011;39100;53.480;6.158;2023-05-29T09:50:47;7.95;;;1.38;;
52868;SDS011;39100;53.480;6.158;2023-05-29T09:55:44;6.43;;;1.20;;
52868;SDS011;39100;53.480;6.158;2023-05-29T09:58:13;5.50;;;1.42;;
52868;SDS011;39100;53.480;6.158;2023-05-29T10:00:41;5.95;;;1.27;;
52868;SDS011;39100;53.480;6.158;2023-05-29T10:03:07;4.15;;;1.27;;
52868;SDS011;39100;53.480;6.158;2023-05-29T10:05:32;2.35;;;0.70;;
52868;SDS011;39100;53.480;6.158;2023-05-29T10:07:58;4.90;;;0.85;;
52868;SDS011;39100;53.480;6.158;2023-05-29T10:10:27;4.30;;;0.85;;
52868;SDS011;39100;53.480;6.158;2023-05-29T10:12:54;1.58;;;0.38;;
52868;SDS011;39100;53.480;6.158;2023-05-29T10:15:22;1.33;;;0.40;;
52868;SDS011;39100;53.480;6.158;2023-05-29T10:18:02;2.75;;;1.33;;
52868;SDS011;39100;53.480;6.158;2023-05-29T10:20:29;2.40;;;0.82;;
52868;SDS011;39100;53.480;6.158;2023-05-29T10:22:59;6.50;;;1.30;;
52868;SDS011;39100;53.480;6.158;2023-05-29T10:25:29;5.75;;;1.38;;
52868;SDS011;39100;53.480;6.158;2023-05-29T10:27:56;5.28;;;1.08;;
52868;SDS011;39100;53.480;6.158;2023-05-29T10:30:30;5.53;;;1.20;;
52868;SDS011;39100;53.480;6.158;2023-05-29T10:38:18;6.97;;;1.70;;
52868;SDS011;39100;53.480;6.158;2023-05-29T10:40:44;7.60;;;1.52;;
52868;SDS011;39100;53.480;6.158;2023-05-29T10:43:44;6.22;;;1.38;;
52868;SDS011;39100;53.480;6.158;2023-05-29T10:46:05;4.15;;;1.63;;
52868;SDS011;39100;53.480;6.158;2023-05-29T10:48:40;5.40;;;1.63;;
52868;SDS011;39100;53.480;6.158;2023-05-29T10:51:06;5.07;;;1.58;;
52868;SDS011;39100;53.480;6.158;2023-05-29T10:53:33;4.68;;;0.88;;
52868;SDS011;39100;53.480;6.158;2023-05-29T10:55:59;5.60;;;1.40;;
52868;SDS011;39100;53.480;6.158;2023-05-29T10:58:29;9.05;;;1.98;;
52868;SDS011;39100;53.480;6.158;2023-05-29T11:00:55;8.52;;;1.63;;
52868;SDS011;39100;53.480;6.158;2023-05-29T11:03:34;4.43;;;1.17;;
52868;SDS011;39100;53.480;6.158;2023-05-29T11:06:07;3.70;;;1.25;;
52868;SDS011;39100;53.480;6.158;2023-05-29T11:11:11;6.35;;;1.85;;
52868;SDS011;39100;53.480;6.158;2023-05-29T11:13:38;10.27;;;2.17;;
52868;SDS011;39100;53.480;6.158;2023-05-29T11:18:38;4.13;;;1.38;;
52868;SDS011;39100;53.480;6.158;2023-05-29T11:21:05;6.82;;;1.45;;
52868;SDS011;39100;53.480;6.158;2023-05-29T11:23:42;11.18;;;2.08;;
52868;SDS011;39100;53.480;6.158;2023-05-29T11:26:10;7.82;;;1.48;;
52868;SDS011;39100;53.480;6.158;2023-05-29T11:28:37;7.32;;;1.35;;
52868;SDS011;39100;53.480;6.158;2023-05-29T11:31:04;4.45;;;1.08;;
52868;SDS011;39100;53.480;6.158;2023-05-29T11:33:33;7.73;;;1.20;;
52868;SDS011;39100;53.480;6.158;2023-05-29T11:36:04;6.88;;;1.33;;
52868;SDS011;39100;53.480;6.158;2023-05-29T11:38:31;8.38;;;1.70;;
52868;SDS011;39100;53.480;6.158;2023-05-29T11:40:57;5.15;;;1.00;;
52868;SDS011;39100;53.480;6.158;2023-05-29T11:43:25;8.30;;;1.67;;
52868;SDS011;39100;53.480;6.158;2023-05-29T11:45:51;8.55;;;1.40;;
52868;SDS011;39100;53.480;6.158;2023-05-29T11:48:17;6.10;;;1.38;;
52868;SDS011;39100;53.480;6.158;2023-05-29T11:50:42;8.73;;;1.55;;
52868;SDS011;39100;53.480;6.158;2023-05-29T11:53:08;6.03;;;1.30;;
52868;SDS011;39100;53.480;6.158;2023-05-29T11:55:34;3.75;;;1.77;;
52868;SDS011;39100;53.480;6.158;2023-05-29T11:58:02;7.47;;;1.25;;
52868;SDS011;39100;53.480;6.158;2023-05-29T12:00:32;6.63;;;1.40;;
52868;SDS011;39100;53.480;6.158;2023-05-29T12:03:00;4.00;;;1.08;;
52868;SDS011;39100;53.480;6.158;2023-05-29T12:05:29;5.32;;;0.88;;
52868;SDS011;39100;53.480;6.158;2023-05-29T12:08:09;2.25;;;0.90;;
52868;SDS011;39100;53.480;6.158;2023-05-29T12:10:34;4.22;;;1.08;;
52868;SDS011;39100;53.480;6.158;2023-05-29T12:13:00;6.13;;;1.02;;
52868;SDS011;39100;53.480;6.158;2023-05-29T12:15:26;6.07;;;1.67;;
52868;SDS011;39100;53.480;6.158;2023-05-29T12:17:52;2.60;;;0.98;;
52868;SDS011;39100;53.480;6.158;2023-05-29T12:20:19;4.50;;;1.40;;
52868;SDS011;39100;53.480;6.158;2023-05-29T12:22:48;5.55;;;1.20;;
52868;SDS011;39100;53.480;6.158;2023-05-29T12:25:17;7.95;;;1.58;;
52868;SDS011;39100;53.480;6.158;2023-05-29T12:27:44;5.38;;;1.02;;
52868;SDS011;39100;53.480;6.158;2023-05-29T12:30:30;6.68;;;1.30;;
52868;SDS011;39100;53.480;6.158;2023-05-29T12:32:56;8.05;;;1.30;;
52868;SDS011;39100;53.480;6.158;2023-05-29T12:37:49;6.75;;;1.90;;
52868;SDS011;39100;53.480;6.158;2023-05-29T12:40:22;6.38;;;1.58;;
52868;SDS011;39100;53.480;6.158;2023-05-29T12:42:56;5.05;;;1.00;;
52868;SDS011;39100;53.480;6.158;2023-05-29T12:45:26;3.65;;;1.08;;
52868;SDS011;39100;53.480;6.158;2023-05-29T12:50:20;2.72;;;1.27;;
52868;SDS011;39100;53.480;6.158;2023-05-29T12:55:27;6.15;;;1.15;;
52868;SDS011;39100;53.480;6.158;2023-05-29T12:57:54;4.35;;;1.42;;
52868;SDS011;39100;53.480;6.158;2023-05-29T13:00:20;4.90;;;0.88;;
52868;SDS011;39100;53.480;6.158;2023-05-29T13:02:47;5.60;;;1.73;;
52868;SDS011;39100;53.480;6.158;2023-05-29T13:05:13;7.13;;;1.55;;
52868;SDS011;39100;53.480;6.158;2023-05-29T13:07:41;5.22;;;1.15;;
52868;SDS011;39100;53.480;6.158;2023-05-29T13:10:07;3.78;;;1.02;;
52868;SDS011;39100;53.480;6.158;2023-05-29T13:12:34;4.13;;;0.85;;
52868;SDS011;39100;53.480;6.158;2023-05-29T13:15:00;5.70;;;1.00;;
52868;SDS011;39100;53.480;6.158;2023-05-29T13:17:25;2.78;;;1.02;;
52868;SDS011;39100;53.480;6.158;2023-05-29T13:19:51;3.53;;;0.95;;
52868;SDS011;39100;53.480;6.158;2023-05-29T13:22:16;5.28;;;1.35;;
52868;SDS011;39100;53.480;6.158;2023-05-29T13:24:42;4.97;;;1.02;;
52868;SDS011;39100;53.480;6.158;2023-05-29T13:27:07;4.03;;;0.68;;
52868;SDS011;39100;53.480;6.158;2023-05-29T13:29:34;3.85;;;0.82;;
52868;SDS011;39100;53.480;6.158;2023-05-29T13:32:00;4.25;;;0.75;;
52868;SDS011;39100;53.480;6.158;2023-05-29T13:34:25;5.15;;;0.85;;
52868;SDS011;39100;53.480;6.158;2023-05-29T13:36:56;5.45;;;1.70;;
52868;SDS011;39100;53.480;6.158;2023-05-29T13:39:22;5.18;;;1.33;;
52868;SDS011;39100;53.480;6.158;2023-05-29T13:41:49;4.47;;;1.08;;
52868;SDS011;39100;53.480;6.158;2023-05-29T13:44:15;5.57;;;1.05;;
52868;SDS011;39100;53.480;6.158;2023-05-29T13:46:41;4.07;;;0.98;;
52868;SDS011;39100;53.480;6.158;2023-05-29T13:49:06;5.25;;;0.90;;
52868;SDS011;39100;53.480;6.158;2023-05-29T13:51:32;5.53;;;1.35;;
52868;SDS011;39100;53.480;6.158;2023-05-29T13:53:58;8.35;;;1.27;;
52868;SDS011;39100;53.480;6.158;2023-05-29T13:56:24;5.07;;;0.93;;
52868;SDS011;39100;53.480;6.158;2023-05-29T13:58:51;4.18;;;1.13;;
52868;SDS011;39100;53.480;6.158;2023-05-29T14:01:17;6.20;;;1.30;;
52868;SDS011;39100;53.480;6.158;2023-05-29T14:03:44;4.47;;;0.70;;
52868;SDS011;39100;53.480;6.158;2023-05-29T14:06:10;6.15;;;1.10;;
52868;SDS011;39100;53.480;6.158;2023-05-29T14:08:36;5.60;;;0.93;;
52868;SDS011;39100;53.480;6.158;2023-05-29T14:11:02;3.85;;;1.17;;
52868;SDS011;39100;53.480;6.158;2023-05-29T14:13:28;5.47;;;0.90;;
52868;SDS011;39100;53.480;6.158;2023-05-29T14:15:53;4.80;;;1.10;;
52868;SDS011;39100;53.480;6.158;2023-05-29T14:18:21;4.63;;;1.10;;
52868;SDS011;39100;53.480;6.158;2023-05-29T14:20:46;6.28;;;0.98;;
52868;SDS011;39100;53.480;6.158;2023-05-29T14:23:13;6.25;;;1.95;;
52868;SDS011;39100;53.480;6.158;2023-05-29T14:25:41;6.97;;;1.05;;
52868;SDS011;39100;53.480;6.158;2023-05-29T14:28:06;4.78;;;1.13;;
52868;SDS011;39100;53.480;6.158;2023-05-29T14:30:32;3.63;;;0.80;;
52868;SDS011;39100;53.480;6.158;2023-05-29T14:32:58;4.45;;;0.93;;
52868;SDS011;39100;53.480;6.158;2023-05-29T14:35:24;5.35;;;1.05;;
52868;SDS011;39100;53.480;6.158;2023-05-29T14:37:50;5.25;;;1.70;;
52868;SDS011;39100;53.480;6.158;2023-05-29T14:40:16;4.15;;;1.00;;
52868;SDS011;39100;53.480;6.158;2023-05-29T14:42:42;5.88;;;0.80;;
52868;SDS011;39100;53.480;6.158;2023-05-29T14:45:07;4.68;;;1.17;;
52868;SDS011;39100;53.480;6.158;2023-05-29T14:47:33;5.40;;;1.10;;
52868;SDS011;39100;53.480;6.158;2023-05-29T14:50:00;4.18;;;0.85;;
52868;SDS011;39100;53.480;6.158;2023-05-29T14:52:25;5.03;;;0.80;;
52868;SDS011;39100;53.480;6.158;2023-05-29T14:54:51;7.53;;;1.05;;
52868;SDS011;39100;53.480;6.158;2023-05-29T14:57:16;5.38;;;1.33;;
52868;SDS011;39100;53.480;6.158;2023-05-29T14:59:42;6.70;;;1.80;;
52868;SDS011;39100;53.480;6.158;2023-05-29T15:02:07;7.30;;;1.48;;
52868;SDS011;39100;53.480;6.158;2023-05-29T15:04:34;7.47;;;1.65;;
52868;SDS011;39100;53.480;6.158;2023-05-29T15:07:00;5.63;;;1.58;;
52868;SDS011;39100;53.480;6.158;2023-05-29T15:09:26;5.40;;;1.30;;
52868;SDS011;39100;53.480;6.158;2023-05-29T15:11:51;10.07;;;1.50;;
52868;SDS011;39100;53.480;6.158;2023-05-29T15:14:17;7.57;;;2.13;;
52868;SDS011;39100;53.480;6.158;2023-05-29T15:16:44;3.60;;;0.93;;